sensor_id;sensor_type;location;lat;lon;timestamp;P1;durP1;ratioP1;P2;durP2;ratioP2
2388;SDS011;1205;47.984;7.668;2022-07-06T00:01:17;2.33;;;2.20;;
2388;SDS011;1205;47.984;7.668;2022-07-06T00:03:46;5.03;;;1.80;;
2388;SDS011;1205;47.984;7.668;2022-07-06T00:06:12;2.60;;;1.80;;
2388;SDS011;1205;47.984;7.668;2022-07-06T00:08:38;1.90;;;1.80;;
2388;SDS011;1205;47.984;7.668;2022-07-06T00:11:04;3.73;;;1.90;;
2388;SDS011;1205;47.984;7.668;2022-07-06T00:13:30;3.43;;;2.03;;
2388;SDS011;1205;47.984;7.668;2022-07-06T00:15:56;5.77;;;1.87;;
2388;SDS011;1205;47.984;7.668;2022-07-06T00:18:22;2.13;;;2.03;;
2388;SDS011;1205;47.984;7.668;2022-07-06T00:20:48;1.73;;;1.63;;
2388;SDS011;1205;47.984;7.668;2022-07-06T00:23:14;3.77;;;2.20;;
2388;SDS011;1205;47.984;7.668;2022-07-06T00:25:39;1.90;;;1.80;;
2388;SDS011;1205;47.984;7.668;2022-07-06T00:28:05;1.90;;;1.80;;
2388;SDS011;1205;47.984;7.668;2022-07-06T00:30:31;4.00;;;2.10;;
2388;SDS011;1205;47.984;7.668;2022-07-06T00:32:57;2.30;;;2.00;;
2388;SDS011;1205;47.984;7.668;2022-07-06T00:35:26;2.80;;;2.10;;
2388;SDS011;1205;47.984;7.668;2022-07-06T00:37:52;1.70;;;1.70;;
2388;SDS011;1205;47.984;7.668;2022-07-06T00:40:18;6.27;;;1.70;;
2388;SDS011;1205;47.984;7.668;2022-07-06T00:42:45;4.30;;;1.77;;
2388;SDS011;1205;47.984;7.668;2022-07-06T00:45:12;4.93;;;1.80;;
2388;SDS011;1205;47.984;7.668;2022-07-06T00:47:42;2.33;;;2.00;;
2388;SDS011;1205;47.984;7.668;2022-07-06T00:50:09;2.00;;;1.90;;
2388;SDS011;1205;47.984;7.668;2022-07-06T00:52:44;1.93;;;1.83;;
2388;SDS011;1205;47.984;7.668;2022-07-06T00:55:11;2.53;;;2.10;;
2388;SDS011;1205;47.984;7.668;2022-07-06T00:57:38;2.93;;;2.30;;
2388;SDS011;1205;47.984;7.668;2022-07-06T01:00:06;3.87;;;2.10;;
2388;SDS011;1205;47.984;7.668;2022-07-06T01:02:33;3.23;;;1.90;;
2388;SDS011;1205;47.984;7.668;2022-07-06T01:05:00;8.27;;;2.10;;
2388;SDS011;1205;47.984;7.668;2022-07-06T01:07:26;6.00;;;1.97;;
2388;SDS011;1205;47.984;7.668;2022-07-06T01:09:53;2.77;;;1.93;;
2388;SDS011;1205;47.984;7.668;2022-07-06T01:12:19;3.20;;;1.87;;
2388;SDS011;1205;47.984;7.668;2022-07-06T01:14:45;1.93;;;1.83;;
2388;SDS011;1205;47.984;7.668;2022-07-06T01:17:12;2.13;;;1.83;;
2388;SDS011;1205;47.984;7.668;2022-07-06T01:19:40;2.30;;;2.10;;
2388;SDS011;1205;47.984;7.668;2022-07-06T01:22:06;3.80;;;1.90;;
2388;SDS011;1205;47.984;7.668;2022-07-06T01:24:34;6.80;;;2.60;;
2388;SDS011;1205;47.984;7.668;2022-07-06T01:27:00;4.23;;;2.37;;
2388;SDS011;1205;47.984;7.668;2022-07-06T01:29:27;1.90;;;1.80;;
2388;SDS011;1205;47.984;7.668;2022-07-06T01:31:53;5.27;;;1.83;;
2388;SDS011;1205;47.984;7.668;2022-07-06T01:34:19;2.77;;;2.03;;
2388;SDS011;1205;47.984;7.668;2022-07-06T01:36:47;4.90;;;1.87;;
2388;SDS011;1205;47.984;7.668;2022-07-06T01:39:16;4.90;;;2.50;;
2388;SDS011;1205;47.984;7.668;2022-07-06T01:41:47;3.60;;;2.07;;
2388;SDS011;1205;47.984;7.668;2022-07-06T01:44:19;3.73;;;2.10;;
2388;SDS011;1205;47.984;7.668;2022-07-06T01:47:00;5.90;;;1.90;;
2388;SDS011;1205;47.984;7.668;2022-07-06T01:49:33;1.67;;;1.57;;
2388;SDS011;1205;47.984;7.668;2022-07-06T01:52:02;2.33;;;2.17;;
2388;SDS011;1205;47.984;7.668;2022-07-06T01:54:28;3.73;;;2.40;;
2388;SDS011;1205;47.984;7.668;2022-07-06T01:56:54;5.43;;;2.10;;
2388;SDS011;1205;47.984;7.668;2022-07-06T01:59:19;3.07;;;2.20;;
2388;SDS011;1205;47.984;7.668;2022-07-06T02:01:45;4.10;;;2.10;;
2388;SDS011;1205;47.984;7.668;2022-07-06T02:04:11;2.43;;;1.87;;
2388;SDS011;1205;47.984;7.668;2022-07-06T02:06:36;2.00;;;1.90;;
2388;SDS011;1205;47.984;7.668;2022-07-06T02:09:02;2.20;;;1.90;;
2388;SDS011;1205;47.984;7.668;2022-07-06T02:11:28;2.63;;;1.80;;
2388;SDS011;1205;47.984;7.668;2022-07-06T02:13:53;3.57;;;2.10;;
2388;SDS011;1205;47.984;7.668;2022-07-06T02:16:19;3.07;;;2.20;;
2388;SDS011;1205;47.984;7.668;2022-07-06T02:18:45;2.27;;;2.17;;
2388;SDS011;1205;47.984;7.668;2022-07-06T02:21:10;3.90;;;2.63;;
2388;SDS011;1205;47.984;7.668;2022-07-06T02:23:36;5.43;;;2.20;;
2388;SDS011;1205;47.984;7.668;2022-07-06T02:26:02;2.43;;;2.07;;
2388;SDS011;1205;47.984;7.668;2022-07-06T02:28:29;4.43;;;2.17;;
2388;SDS011;1205;47.984;7.668;2022-07-06T02:30:54;2.43;;;1.90;;
2388;SDS011;1205;47.984;7.668;2022-07-06T02:33:20;2.60;;;2.23;;
2388;SDS011;1205;47.984;7.668;2022-07-06T02:35:46;2.60;;;2.40;;
2388;SDS011;1205;47.984;7.668;2022-07-06T02:38:12;5.20;;;2.50;;
2388;SDS011;1205;47.984;7.668;2022-07-06T02:40:38;2.53;;;2.00;;
2388;SDS011;1205;47.984;7.668;2022-07-06T02:43:04;2.97;;;2.27;;
2388;SDS011;1205;47.984;7.668;2022-07-06T02:45:31;2.10;;;2.00;;
2388;SDS011;1205;47.984;7.668;2022-07-06T02:47:57;2.40;;;2.20;;
2388;SDS011;1205;47.984;7.668;2022-07-06T02:50:23;2.23;;;1.90;;
2388;SDS011;1205;47.984;7.668;2022-07-06T02:52:49;3.97;;;2.63;;
2388;SDS011;1205;47.984;7.668;2022-07-06T02:55:15;3.37;;;2.17;;
2388;SDS011;1205;47.984;7.668;2022-07-06T02:57:41;2.47;;;2.00;;
2388;SDS011;1205;47.984;7.668;2022-07-06T03:02:36;3.67;;;2.27;;
2388;SDS011;1205;47.984;7.668;2022-07-06T03:05:02;12.40;;;2.97;;
2388;SDS011;1205;47.984;7.668;2022-07-06T03:07:28;5.27;;;2.00;;
2388;SDS011;1205;47.984;7.668;2022-07-06T03:09:54;3.70;;;2.37;;
2388;SDS011;1205;47.984;7.668;2022-07-06T03:12:19;3.27;;;1.97;;
2388;SDS011;1205;47.984;7.668;2022-07-06T03:14:45;2.40;;;2.20;;
2388;SDS011;1205;47.984;7.668;2022-07-06T03:17:11;2.80;;;2.60;;
2388;SDS011;1205;47.984;7.668;2022-07-06T03:19:37;1.93;;;1.83;;
2388;SDS011;1205;47.984;7.668;2022-07-06T03:22:03;5.43;;;2.70;;
2388;SDS011;1205;47.984;7.668;2022-07-06T03:24:29;2.53;;;2.37;;
2388;SDS011;1205;47.984;7.668;2022-07-06T03:26:55;7.07;;;2.60;;
2388;SDS011;1205;47.984;7.668;2022-07-06T03:29:20;12.77;;;2.90;;
2388;SDS011;1205;47.984;7.668;2022-07-06T03:31:46;2.57;;;2.40;;
2388;SDS011;1205;47.984;7.668;2022-07-06T03:34:12;3.53;;;2.40;;
2388;SDS011;1205;47.984;7.668;2022-07-06T03:36:38;6.73;;;2.40;;
2388;SDS011;1205;47.984;7.668;2022-07-06T03:39:04;3.20;;;2.97;;
2388;SDS011;1205;47.984;7.668;2022-07-06T03:41:31;3.83;;;2.50;;
2388;SDS011;1205;47.984;7.668;2022-07-06T03:43:57;2.87;;;2.67;;
2388;SDS011;1205;47.984;7.668;2022-07-06T03:46:23;6.00;;;2.20;;
2388;SDS011;1205;47.984;7.668;2022-07-06T03:48:49;2.90;;;2.47;;
2388;SDS011;1205;47.984;7.668;2022-07-06T03:51:15;2.77;;;2.17;;
2388;SDS011;1205;47.984;7.668;2022-07-06T03:53:40;3.23;;;2.50;;
2388;SDS011;1205;47.984;7.668;2022-07-06T03:56:06;2.40;;;2.30;;
2388;SDS011;1205;47.984;7.668;2022-07-06T03:58:50;3.47;;;2.60;;
2388;SDS011;1205;47.984;7.668;2022-07-06T04:01:16;3.77;;;2.33;;
2388;SDS011;1205;47.984;7.668;2022-07-06T04:03:42;4.07;;;2.23;;
2388;SDS011;1205;47.984;7.668;2022-07-06T04:06:07;4.70;;;2.07;;
2388;SDS011;1205;47.984;7.668;2022-07-06T04:08:37;4.10;;;2.40;;
2388;SDS011;1205;47.984;7.668;2022-07-06T04:11:02;2.13;;;1.93;;
2388;SDS011;1205;47.984;7.668;2022-07-06T04:13:28;2.30;;;2.13;;
2388;SDS011;1205;47.984;7.668;2022-07-06T04:15:54;4.80;;;2.43;;
2388;SDS011;1205;47.984;7.668;2022-07-06T04:18:20;8.73;;;2.40;;
2388;SDS011;1205;47.984;7.668;2022-07-06T04:20:46;4.00;;;2.40;;
2388;SDS011;1205;47.984;7.668;2022-07-06T04:23:11;4.43;;;2.10;;
2388;SDS011;1205;47.984;7.668;2022-07-06T04:25:37;5.00;;;2.20;;
2388;SDS011;1205;47.984;7.668;2022-07-06T04:28:03;4.67;;;2.43;;
2388;SDS011;1205;47.984;7.668;2022-07-06T04:30:29;3.50;;;2.17;;
2388;SDS011;1205;47.984;7.668;2022-07-06T04:32:55;4.37;;;2.07;;
2388;SDS011;1205;47.984;7.668;2022-07-06T04:35:21;5.37;;;2.57;;
2388;SDS011;1205;47.984;7.668;2022-07-06T04:37:47;11.27;;;2.10;;
2388;SDS011;1205;47.984;7.668;2022-07-06T04:40:13;3.13;;;2.00;;
2388;SDS011;1205;47.984;7.668;2022-07-06T04:42:39;2.80;;;2.70;;
2388;SDS011;1205;47.984;7.668;2022-07-06T04:45:05;2.60;;;2.50;;
2388;SDS011;1205;47.984;7.668;2022-07-06T04:47:31;1.93;;;1.77;;
2388;SDS011;1205;47.984;7.668;2022-07-06T04:49:57;3.30;;;2.03;;
2388;SDS011;1205;47.984;7.668;2022-07-06T04:52:23;2.37;;;2.17;;
2388;SDS011;1205;47.984;7.668;2022-07-06T04:54:49;4.30;;;2.27;;
2388;SDS011;1205;47.984;7.668;2022-07-06T04:57:15;4.50;;;2.47;;
2388;SDS011;1205;47.984;7.668;2022-07-06T04:59:41;2.40;;;2.30;;
2388;SDS011;1205;47.984;7.668;2022-07-06T05:02:06;3.87;;;2.53;;
2388;SDS011;1205;47.984;7.668;2022-07-06T05:04:32;3.07;;;1.80;;
2388;SDS011;1205;47.984;7.668;2022-07-06T05:06:58;2.73;;;2.50;;
2388;SDS011;1205;47.984;7.668;2022-07-06T05:09:24;2.30;;;1.97;;
2388;SDS011;1205;47.984;7.668;2022-07-06T05:11:50;8.07;;;1.97;;
2388;SDS011;1205;47.984;7.668;2022-07-06T05:14:16;2.43;;;2.23;;
2388;SDS011;1205;47.984;7.668;2022-07-06T05:16:41;2.47;;;2.10;;
2388;SDS011;1205;47.984;7.668;2022-07-06T05:19:07;2.37;;;2.17;;
2388;SDS011;1205;47.984;7.668;2022-07-06T05:21:33;4.23;;;2.83;;
2388;SDS011;1205;47.984;7.668;2022-07-06T05:23:59;7.10;;;2.23;;
2388;SDS011;1205;47.984;7.668;2022-07-06T05:26:24;3.70;;;2.20;;
2388;SDS011;1205;47.984;7.668;2022-07-06T05:28:50;2.17;;;2.07;;
2388;SDS011;1205;47.984;7.668;2022-07-06T05:31:16;9.70;;;2.13;;
2388;SDS011;1205;47.984;7.668;2022-07-06T05:33:41;3.57;;;2.80;;
2388;SDS011;1205;47.984;7.668;2022-07-06T05:36:07;4.93;;;2.10;;
2388;SDS011;1205;47.984;7.668;2022-07-06T05:38:33;2.40;;;2.10;;
2388;SDS011;1205;47.984;7.668;2022-07-06T05:40:59;3.27;;;2.00;;
2388;SDS011;1205;47.984;7.668;2022-07-06T05:43:24;4.17;;;2.33;;
2388;SDS011;1205;47.984;7.668;2022-07-06T05:45:50;3.00;;;2.20;;
2388;SDS011;1205;47.984;7.668;2022-07-06T05:48:16;3.50;;;2.10;;
2388;SDS011;1205;47.984;7.668;2022-07-06T05:51:00;8.93;;;4.53;;
2388;SDS011;1205;47.984;7.668;2022-07-06T05:53:27;5.37;;;4.50;;
2388;SDS011;1205;47.984;7.668;2022-07-06T05:55:52;3.83;;;3.57;;
2388;SDS011;1205;47.984;7.668;2022-07-06T05:58:18;3.93;;;3.07;;
2388;SDS011;1205;47.984;7.668;2022-07-06T06:00:44;3.80;;;2.57;;
2388;SDS011;1205;47.984;7.668;2022-07-06T06:03:10;2.67;;;2.47;;
2388;SDS011;1205;47.984;7.668;2022-07-06T06:05:36;11.20;;;3.40;;
2388;SDS011;1205;47.984;7.668;2022-07-06T06:08:02;5.43;;;2.77;;
2388;SDS011;1205;47.984;7.668;2022-07-06T06:10:27;7.00;;;2.90;;
2388;SDS011;1205;47.984;7.668;2022-07-06T06:12:53;5.47;;;2.53;;
2388;SDS011;1205;47.984;7.668;2022-07-06T06:15:19;4.17;;;2.73;;
2388;SDS011;1205;47.984;7.668;2022-07-06T06:17:45;4.80;;;3.03;;
2388;SDS011;1205;47.984;7.668;2022-07-06T06:20:11;5.43;;;3.37;;
2388;SDS011;1205;47.984;7.668;2022-07-06T06:25:15;5.33;;;3.13;;
2388;SDS011;1205;47.984;7.668;2022-07-06T06:27:42;6.70;;;3.30;;
2388;SDS011;1205;47.984;7.668;2022-07-06T06:30:08;3.33;;;3.07;;
2388;SDS011;1205;47.984;7.668;2022-07-06T06:32:34;7.00;;;2.87;;
2388;SDS011;1205;47.984;7.668;2022-07-06T06:34:59;3.47;;;3.17;;
2388;SDS011;1205;47.984;7.668;2022-07-06T06:37:25;7.40;;;3.77;;
2388;SDS011;1205;47.984;7.668;2022-07-06T06:39:51;6.00;;;3.30;;
2388;SDS011;1205;47.984;7.668;2022-07-06T06:42:16;3.00;;;2.60;;
2388;SDS011;1205;47.984;7.668;2022-07-06T06:44:45;4.30;;;2.83;;
2388;SDS011;1205;47.984;7.668;2022-07-06T06:47:11;3.40;;;3.07;;
2388;SDS011;1205;47.984;7.668;2022-07-06T06:49:37;4.60;;;3.30;;
2388;SDS011;1205;47.984;7.668;2022-07-06T06:52:02;6.73;;;3.30;;
2388;SDS011;1205;47.984;7.668;2022-07-06T06:54:28;14.70;;;3.73;;
2388;SDS011;1205;47.984;7.668;2022-07-06T06:56:54;4.37;;;3.07;;
2388;SDS011;1205;47.984;7.668;2022-07-06T06:59:20;4.40;;;3.47;;
2388;SDS011;1205;47.984;7.668;2022-07-06T07:01:45;3.97;;;2.63;;
2388;SDS011;1205;47.984;7.668;2022-07-06T07:04:11;3.83;;;2.90;;
2388;SDS011;1205;47.984;7.668;2022-07-06T07:06:37;7.37;;;3.37;;
2388;SDS011;1205;47.984;7.668;2022-07-06T07:09:03;3.47;;;3.27;;
2388;SDS011;1205;47.984;7.668;2022-07-06T07:11:30;5.67;;;3.30;;
2388;SDS011;1205;47.984;7.668;2022-07-06T07:13:56;4.60;;;3.70;;
2388;SDS011;1205;47.984;7.668;2022-07-06T07:16:22;12.77;;;2.90;;
2388;SDS011;1205;47.984;7.668;2022-07-06T07:18:49;6.37;;;3.00;;
2388;SDS011;1205;47.984;7.668;2022-07-06T07:21:15;11.07;;;3.20;;
2388;SDS011;1205;47.984;7.668;2022-07-06T07:23:41;4.97;;;2.80;;
2388;SDS011;1205;47.984;7.668;2022-07-06T07:26:07;6.20;;;3.10;;
2388;SDS011;1205;47.984;7.668;2022-07-06T07:28:32;6.53;;;3.30;;
2388;SDS011;1205;47.984;7.668;2022-07-06T07:30:58;5.73;;;3.00;;
2388;SDS011;1205;47.984;7.668;2022-07-06T07:33:24;4.63;;;2.97;;
2388;SDS011;1205;47.984;7.668;2022-07-06T07:35:50;4.20;;;3.10;;
2388;SDS011;1205;47.984;7.668;2022-07-06T07:38:15;3.77;;;2.80;;
2388;SDS011;1205;47.984;7.668;2022-07-06T07:40:41;3.30;;;3.10;;
2388;SDS011;1205;47.984;7.668;2022-07-06T07:43:07;5.47;;;3.10;;
2388;SDS011;1205;47.984;7.668;2022-07-06T07:45:33;5.27;;;3.40;;
2388;SDS011;1205;47.984;7.668;2022-07-06T07:47:59;3.47;;;2.90;;
2388;SDS011;1205;47.984;7.668;2022-07-06T07:50:25;6.80;;;2.73;;
2388;SDS011;1205;47.984;7.668;2022-07-06T07:52:51;5.00;;;3.23;;
2388;SDS011;1205;47.984;7.668;2022-07-06T07:55:18;7.00;;;3.30;;
2388;SDS011;1205;47.984;7.668;2022-07-06T07:57:43;5.07;;;3.13;;
2388;SDS011;1205;47.984;7.668;2022-07-06T08:00:09;4.30;;;2.83;;
2388;SDS011;1205;47.984;7.668;2022-07-06T08:02:35;4.73;;;3.53;;
2388;SDS011;1205;47.984;7.668;2022-07-06T08:05:01;9.77;;;3.50;;
2388;SDS011;1205;47.984;7.668;2022-07-06T08:07:29;5.17;;;4.20;;
2388;SDS011;1205;47.984;7.668;2022-07-06T08:09:54;6.43;;;2.80;;
2388;SDS011;1205;47.984;7.668;2022-07-06T08:12:20;8.60;;;3.20;;
2388;SDS011;1205;47.984;7.668;2022-07-06T08:14:46;3.60;;;3.30;;
2388;SDS011;1205;47.984;7.668;2022-07-06T08:17:11;6.03;;;2.80;;
2388;SDS011;1205;47.984;7.668;2022-07-06T08:19:37;5.97;;;2.93;;
2388;SDS011;1205;47.984;7.668;2022-07-06T08:22:03;3.03;;;2.73;;
2388;SDS011;1205;47.984;7.668;2022-07-06T08:24:35;8.60;;;4.00;;
2388;SDS011;1205;47.984;7.668;2022-07-06T08:27:01;3.93;;;3.13;;
2388;SDS011;1205;47.984;7.668;2022-07-06T08:29:28;6.30;;;2.90;;
2388;SDS011;1205;47.984;7.668;2022-07-06T08:31:55;8.03;;;3.10;;
2388;SDS011;1205;47.984;7.668;2022-07-06T08:34:21;11.60;;;3.00;;
2388;SDS011;1205;47.984;7.668;2022-07-06T08:36:47;5.93;;;2.80;;
2388;SDS011;1205;47.984;7.668;2022-07-06T08:39:12;3.63;;;3.10;;
2388;SDS011;1205;47.984;7.668;2022-07-06T08:41:38;6.77;;;2.73;;
2388;SDS011;1205;47.984;7.668;2022-07-06T08:44:07;3.50;;;3.10;;
2388;SDS011;1205;47.984;7.668;2022-07-06T08:46:34;7.70;;;3.03;;
2388;SDS011;1205;47.984;7.668;2022-07-06T08:49:02;7.80;;;3.07;;
2388;SDS011;1205;47.984;7.668;2022-07-06T08:51:30;7.70;;;3.03;;
2388;SDS011;1205;47.984;7.668;2022-07-06T08:53:57;3.07;;;2.60;;
2388;SDS011;1205;47.984;7.668;2022-07-06T08:56:24;6.73;;;2.50;;
2388;SDS011;1205;47.984;7.668;2022-07-06T08:58:52;4.67;;;2.80;;
2388;SDS011;1205;47.984;7.668;2022-07-06T09:01:19;5.33;;;2.90;;
2388;SDS011;1205;47.984;7.668;2022-07-06T09:03:45;4.53;;;3.20;;
2388;SDS011;1205;47.984;7.668;2022-07-06T09:06:13;4.30;;;3.17;;
2388;SDS011;1205;47.984;7.668;2022-07-06T09:08:44;5.70;;;3.07;;
2388;SDS011;1205;47.984;7.668;2022-07-06T09:11:11;4.70;;;3.30;;
2388;SDS011;1205;47.984;7.668;2022-07-06T09:13:37;4.17;;;3.17;;
2388;SDS011;1205;47.984;7.668;2022-07-06T09:16:13;6.70;;;3.10;;
2388;SDS011;1205;47.984;7.668;2022-07-06T09:18:41;7.60;;;3.40;;
2388;SDS011;1205;47.984;7.668;2022-07-06T09:21:10;2.70;;;2.40;;
2388;SDS011;1205;47.984;7.668;2022-07-06T09:23:36;2.90;;;2.70;;
2388;SDS011;1205;47.984;7.668;2022-07-06T09:26:03;5.60;;;2.87;;
2388;SDS011;1205;47.984;7.668;2022-07-06T09:28:40;7.43;;;2.93;;
2388;SDS011;1205;47.984;7.668;2022-07-06T09:31:10;5.70;;;2.90;;
2388;SDS011;1205;47.984;7.668;2022-07-06T09:33:36;4.37;;;2.90;;
2388;SDS011;1205;47.984;7.668;2022-07-06T09:36:03;7.00;;;2.90;;
2388;SDS011;1205;47.984;7.668;2022-07-06T09:38:31;3.87;;;2.80;;
2388;SDS011;1205;47.984;7.668;2022-07-06T09:40:57;2.50;;;2.30;;
2388;SDS011;1205;47.984;7.668;2022-07-06T09:43:23;9.73;;;2.83;;
2388;SDS011;1205;47.984;7.668;2022-07-06T09:45:50;9.53;;;2.63;;
2388;SDS011;1205;47.984;7.668;2022-07-06T09:48:22;3.77;;;3.03;;
2388;SDS011;1205;47.984;7.668;2022-07-06T09:50:57;7.07;;;2.73;;
2388;SDS011;1205;47.984;7.668;2022-07-06T09:53:24;5.10;;;2.90;;
2388;SDS011;1205;47.984;7.668;2022-07-06T09:55:53;11.87;;;3.43;;
2388;SDS011;1205;47.984;7.668;2022-07-06T09:58:20;9.60;;;3.13;;
2388;SDS011;1205;47.984;7.668;2022-07-06T10:00:46;2.23;;;2.03;;
2388;SDS011;1205;47.984;7.668;2022-07-06T10:03:13;4.80;;;2.63;;
2388;SDS011;1205;47.984;7.668;2022-07-06T10:05:41;15.33;;;2.93;;
2388;SDS011;1205;47.984;7.668;2022-07-06T10:08:09;7.27;;;2.70;;
2388;SDS011;1205;47.984;7.668;2022-07-06T10:10:35;2.40;;;2.20;;
2388;SDS011;1205;47.984;7.668;2022-07-06T10:13:02;4.67;;;2.80;;
2388;SDS011;1205;47.984;7.668;2022-07-06T10:15:31;5.03;;;2.60;;
2388;SDS011;1205;47.984;7.668;2022-07-06T10:18:02;3.50;;;2.97;;
2388;SDS011;1205;47.984;7.668;2022-07-06T10:20:32;8.40;;;2.80;;
2388;SDS011;1205;47.984;7.668;2022-07-06T10:23:01;12.13;;;2.90;;
2388;SDS011;1205;47.984;7.668;2022-07-06T10:25:28;4.30;;;2.00;;
2388;SDS011;1205;47.984;7.668;2022-07-06T10:27:56;6.17;;;2.03;;
2388;SDS011;1205;47.984;7.668;2022-07-06T10:30:22;3.47;;;2.40;;
2388;SDS011;1205;47.984;7.668;2022-07-06T10:32:50;4.07;;;2.60;;
2388;SDS011;1205;47.984;7.668;2022-07-06T10:35:18;2.50;;;2.23;;
2388;SDS011;1205;47.984;7.668;2022-07-06T10:37:44;5.20;;;2.03;;
2388;SDS011;1205;47.984;7.668;2022-07-06T10:40:12;13.33;;;2.87;;
2388;SDS011;1205;47.984;7.668;2022-07-06T10:43:00;3.53;;;2.07;;
2388;SDS011;1205;47.984;7.668;2022-07-06T10:50:59;5.33;;;2.10;;
2388;SDS011;1205;47.984;7.668;2022-07-06T10:53:36;6.23;;;2.63;;
2388;SDS011;1205;47.984;7.668;2022-07-06T10:56:05;3.03;;;1.90;;
2388;SDS011;1205;47.984;7.668;2022-07-06T11:01:16;2.67;;;2.40;;
2388;SDS011;1205;47.984;7.668;2022-07-06T11:03:43;3.70;;;2.10;;
2388;SDS011;1205;47.984;7.668;2022-07-06T11:06:13;3.50;;;1.83;;
2388;SDS011;1205;47.984;7.668;2022-07-06T11:08:46;6.30;;;2.43;;
2388;SDS011;1205;47.984;7.668;2022-07-06T11:11:26;2.30;;;2.10;;
2388;SDS011;1205;47.984;7.668;2022-07-06T11:14:11;2.53;;;2.20;;
2388;SDS011;1205;47.984;7.668;2022-07-06T11:17:22;6.37;;;2.10;;
2388;SDS011;1205;47.984;7.668;2022-07-06T11:19:26;3.20;;;1.90;;
2388;SDS011;1205;47.984;7.668;2022-07-06T11:21:58;6.40;;;2.10;;
2388;SDS011;1205;47.984;7.668;2022-07-06T11:24:33;6.30;;;2.23;;
2388;SDS011;1205;47.984;7.668;2022-07-06T11:27:01;4.23;;;2.33;;
2388;SDS011;1205;47.984;7.668;2022-07-06T11:29:27;3.03;;;1.93;;
2388;SDS011;1205;47.984;7.668;2022-07-06T11:31:58;3.73;;;2.20;;
2388;SDS011;1205;47.984;7.668;2022-07-06T11:34:26;4.30;;;2.43;;
2388;SDS011;1205;47.984;7.668;2022-07-06T11:39:28;2.70;;;2.10;;
2388;SDS011;1205;47.984;7.668;2022-07-06T11:41:56;2.10;;;2.00;;
2388;SDS011;1205;47.984;7.668;2022-07-06T11:44:22;5.20;;;2.07;;
2388;SDS011;1205;47.984;7.668;2022-07-06T11:46:47;2.23;;;2.10;;
2388;SDS011;1205;47.984;7.668;2022-07-06T11:49:13;7.03;;;1.90;;
2388;SDS011;1205;47.984;7.668;2022-07-06T11:51:40;2.83;;;2.00;;
2388;SDS011;1205;47.984;7.668;2022-07-06T11:54:14;7.33;;;2.13;;
2388;SDS011;1205;47.984;7.668;2022-07-06T11:56:51;6.60;;;2.00;;
2388;SDS011;1205;47.984;7.668;2022-07-06T12:02:04;2.57;;;2.07;;
2388;SDS011;1205;47.984;7.668;2022-07-06T12:04:32;4.27;;;1.80;;
2388;SDS011;1205;47.984;7.668;2022-07-06T12:07:03;5.30;;;2.07;;
2388;SDS011;1205;47.984;7.668;2022-07-06T12:09:33;5.37;;;2.30;;
2388;SDS011;1205;47.984;7.668;2022-07-06T12:12:00;2.90;;;2.23;;
2388;SDS011;1205;47.984;7.668;2022-07-06T12:14:28;4.40;;;2.30;;
2388;SDS011;1205;47.984;7.668;2022-07-06T12:16:54;6.43;;;2.30;;
2388;SDS011;1205;47.984;7.668;2022-07-06T12:19:23;3.73;;;2.33;;
2388;SDS011;1205;47.984;7.668;2022-07-06T12:21:49;7.83;;;3.13;;
2388;SDS011;1205;47.984;7.668;2022-07-06T12:24:20;3.73;;;1.80;;
2388;SDS011;1205;47.984;7.668;2022-07-06T12:26:47;1.80;;;1.70;;
2388;SDS011;1205;47.984;7.668;2022-07-06T12:29:14;2.30;;;2.00;;
2388;SDS011;1205;47.984;7.668;2022-07-06T12:34:20;2.30;;;1.80;;
2388;SDS011;1205;47.984;7.668;2022-07-06T12:36:48;6.67;;;2.13;;
2388;SDS011;1205;47.984;7.668;2022-07-06T12:39:16;4.67;;;2.03;;
2388;SDS011;1205;47.984;7.668;2022-07-06T12:41:47;7.60;;;2.37;;
2388;SDS011;1205;47.984;7.668;2022-07-06T12:44:19;6.63;;;1.70;;
2388;SDS011;1205;47.984;7.668;2022-07-06T12:46:47;6.50;;;2.77;;
2388;SDS011;1205;47.984;7.668;2022-07-06T12:49:19;2.27;;;2.17;;
2388;SDS011;1205;47.984;7.668;2022-07-06T12:54:16;9.53;;;2.10;;
2388;SDS011;1205;47.984;7.668;2022-07-06T12:56:58;5.87;;;2.20;;
2388;SDS011;1205;47.984;7.668;2022-07-06T12:59:39;3.93;;;2.47;;
2388;SDS011;1205;47.984;7.668;2022-07-06T13:02:09;1.93;;;1.83;;
2388;SDS011;1205;47.984;7.668;2022-07-06T13:04:42;6.97;;;2.20;;
2388;SDS011;1205;47.984;7.668;2022-07-06T13:07:16;7.80;;;1.90;;
2388;SDS011;1205;47.984;7.668;2022-07-06T13:09:44;2.20;;;2.00;;
2388;SDS011;1205;47.984;7.668;2022-07-06T13:12:10;2.00;;;1.90;;
2388;SDS011;1205;47.984;7.668;2022-07-06T13:14:35;1.97;;;1.80;;
2388;SDS011;1205;47.984;7.668;2022-07-06T13:17:01;2.23;;;2.03;;
2388;SDS011;1205;47.984;7.668;2022-07-06T13:19:28;2.93;;;2.23;;
2388;SDS011;1205;47.984;7.668;2022-07-06T13:21:53;4.20;;;2.50;;
2388;SDS011;1205;47.984;7.668;2022-07-06T13:24:19;4.57;;;2.03;;
2388;SDS011;1205;47.984;7.668;2022-07-06T13:26:45;5.83;;;2.57;;
2388;SDS011;1205;47.984;7.668;2022-07-06T13:29:11;2.80;;;2.00;;
2388;SDS011;1205;47.984;7.668;2022-07-06T13:31:38;2.00;;;1.80;;
2388;SDS011;1205;47.984;7.668;2022-07-06T13:34:05;3.33;;;2.03;;
2388;SDS011;1205;47.984;7.668;2022-07-06T13:36:31;5.47;;;2.90;;
2388;SDS011;1205;47.984;7.668;2022-07-06T13:38:58;4.23;;;2.20;;
2388;SDS011;1205;47.984;7.668;2022-07-06T13:41:23;6.33;;;1.90;;
2388;SDS011;1205;47.984;7.668;2022-07-06T13:43:49;2.37;;;1.97;;
2388;SDS011;1205;47.984;7.668;2022-07-06T13:46:15;3.40;;;2.20;;
2388;SDS011;1205;47.984;7.668;2022-07-06T13:48:41;5.17;;;2.43;;
2388;SDS011;1205;47.984;7.668;2022-07-06T13:51:07;2.20;;;1.90;;
2388;SDS011;1205;47.984;7.668;2022-07-06T13:53:33;2.27;;;2.10;;
2388;SDS011;1205;47.984;7.668;2022-07-06T13:55:59;4.77;;;2.30;;
2388;SDS011;1205;47.984;7.668;2022-07-06T13:58:25;6.50;;;2.13;;
2388;SDS011;1205;47.984;7.668;2022-07-06T14:00:51;5.50;;;2.30;;
2388;SDS011;1205;47.984;7.668;2022-07-06T14:03:17;2.93;;;2.13;;
2388;SDS011;1205;47.984;7.668;2022-07-06T14:05:42;2.80;;;2.10;;
2388;SDS011;1205;47.984;7.668;2022-07-06T14:08:08;3.23;;;1.97;;
2388;SDS011;1205;47.984;7.668;2022-07-06T14:10:34;5.43;;;2.10;;
2388;SDS011;1205;47.984;7.668;2022-07-06T14:12:59;5.07;;;2.33;;
2388;SDS011;1205;47.984;7.668;2022-07-06T14:15:25;5.93;;;2.43;;
2388;SDS011;1205;47.984;7.668;2022-07-06T14:17:51;3.20;;;2.00;;
2388;SDS011;1205;47.984;7.668;2022-07-06T14:20:17;2.37;;;2.17;;
2388;SDS011;1205;47.984;7.668;2022-07-06T14:22:43;5.13;;;2.10;;
2388;SDS011;1205;47.984;7.668;2022-07-06T14:25:09;3.53;;;1.93;;
2388;SDS011;1205;47.984;7.668;2022-07-06T14:27:35;2.50;;;1.60;;
2388;SDS011;1205;47.984;7.668;2022-07-06T14:30:01;2.03;;;1.90;;
2388;SDS011;1205;47.984;7.668;2022-07-06T14:32:27;2.37;;;2.07;;
2388;SDS011;1205;47.984;7.668;2022-07-06T14:34:53;5.37;;;1.67;;
2388;SDS011;1205;47.984;7.668;2022-07-06T14:37:19;2.60;;;1.90;;
2388;SDS011;1205;47.984;7.668;2022-07-06T14:39:45;3.23;;;1.70;;
2388;SDS011;1205;47.984;7.668;2022-07-06T14:42:11;4.00;;;1.83;;
2388;SDS011;1205;47.984;7.668;2022-07-06T14:44:37;4.23;;;1.93;;
2388;SDS011;1205;47.984;7.668;2022-07-06T14:47:03;5.53;;;1.70;;
2388;SDS011;1205;47.984;7.668;2022-07-06T14:49:29;2.70;;;2.00;;
2388;SDS011;1205;47.984;7.668;2022-07-06T14:51:55;4.60;;;1.50;;
2388;SDS011;1205;47.984;7.668;2022-07-06T14:54:22;1.77;;;1.67;;
2388;SDS011;1205;47.984;7.668;2022-07-06T14:56:48;4.93;;;1.80;;
2388;SDS011;1205;47.984;7.668;2022-07-06T14:59:14;2.70;;;1.93;;
2388;SDS011;1205;47.984;7.668;2022-07-06T15:01:40;3.63;;;1.80;;
2388;SDS011;1205;47.984;7.668;2022-07-06T15:04:06;3.23;;;2.00;;
2388;SDS011;1205;47.984;7.668;2022-07-06T15:06:32;1.97;;;1.87;;
2388;SDS011;1205;47.984;7.668;2022-07-06T15:08:58;2.20;;;2.00;;
2388;SDS011;1205;47.984;7.668;2022-07-06T15:11:26;2.30;;;1.87;;
2388;SDS011;1205;47.984;7.668;2022-07-06T15:13:51;3.43;;;1.80;;
2388;SDS011;1205;47.984;7.668;2022-07-06T15:16:17;1.93;;;1.80;;
2388;SDS011;1205;47.984;7.668;2022-07-06T15:18:43;6.93;;;1.97;;
2388;SDS011;1205;47.984;7.668;2022-07-06T15:21:08;4.17;;;1.80;;
2388;SDS011;1205;47.984;7.668;2022-07-06T15:23:34;2.50;;;1.70;;
2388;SDS011;1205;47.984;7.668;2022-07-06T15:26:02;3.43;;;1.97;;
2388;SDS011;1205;47.984;7.668;2022-07-06T15:28:28;4.40;;;1.87;;
2388;SDS011;1205;47.984;7.668;2022-07-06T15:30:54;1.83;;;1.73;;
2388;SDS011;1205;47.984;7.668;2022-07-06T15:33:20;3.23;;;1.90;;
2388;SDS011;1205;47.984;7.668;2022-07-06T15:35:46;6.40;;;2.10;;
2388;SDS011;1205;47.984;7.668;2022-07-06T15:38:13;2.50;;;1.77;;